Time;durP1;ratioP1;P1;durP2;ratioP2;P2;SDS_P1;SDS_P2;PMS_P1;PMS_P2;Temp;Humidity;BMP_temperature;BMP_pressure;BME280_temperature;BME280_humidity;BME280_pressure;Samples;Min_cycle;Max_cycle;Signal;HPM_P1;HPM_P2
2023/09/20 00:02:26;;;;;;;6.30;1.53;;;;;;;15.86;100.00;100029.38;5032508;28;20411;-88
2023/09/20 00:05:00;;;;;;;5.88;1.50;;;;;;;15.83;100.00;100026.50;5030883;28;20431;-87
2023/09/20 00:07:28;;;;;;;6.05;1.65;;;;;;;15.87;100.00;100028.25;5029085;28;20427;-86
2023/09/20 00:09:56;;;;;;;6.18;1.40;;;;;;;15.93;100.00;100031.59;5032267;28;20407;-87
2023/09/20 00:12:24;;;;;;;5.10;1.70;;;;;;;15.90;100.00;100021.28;5037102;28;20427;-88
2023/09/20 00:14:53;;;;;;;5.28;1.50;;;;;;;15.87;100.00;100021.94;5046862;28;20429;-88
2023/09/20 00:17:23;;;;;;;7.50;1.73;;;;;;;15.84;100.00;100031.66;5030498;28;20427;-89
2023/09/20 00:19:56;;;;;;;4.70;1.38;;;;;;;15.88;100.00;100037.28;5032051;28;20431;-87
2023/09/20 00:22:24;;;;;;;7.60;1.67;;;;;;;16.02;100.00;100026.88;5030764;28;20498;-88
2023/09/20 00:24:55;;;;;;;6.82;1.70;;;;;;;15.99;100.00;100033.00;5031068;28;20415;-89
2023/09/20 00:27:23;;;;;;;6.60;1.63;;;;;;;16.01;100.00;100028.00;5045438;28;20419;-87
2023/09/20 00:29:56;;;;;;;6.78;1.73;;;;;;;16.01;100.00;100036.22;5029958;28;20506;-89
2023/09/20 00:32:26;;;;;;;5.57;1.50;;;;;;;16.05;100.00;100020.72;5029430;28;20942;-85
2023/09/20 00:34:59;;;;;;;10.40;1.80;;;;;;;16.05;100.00;100026.19;5047024;28;20426;-87
2023/09/20 00:37:32;;;;;;;5.40;1.55;;;;;;;16.04;100.00;100032.81;5020974;28;20423;-88
2023/09/20 00:40:13;;;;;;;3.72;1.48;;;;;;;16.07;100.00;100018.41;5047162;28;20411;-87
2023/09/20 00:42:49;;;;;;;3.70;1.40;;;;;;;16.05;100.00;100022.66;5031739;28;20431;-89
2023/09/20 00:45:22;;;;;;;5.90;1.40;;;;;;;16.06;100.00;100016.00;5027655;28;20430;-88
2023/09/20 00:47:55;;;;;;;5.95;1.50;;;;;;;16.03;100.00;100028.47;5029601;28;20426;-89
2023/09/20 00:50:32;;;;;;;6.30;1.48;;;;;;;15.94;100.00;100022.25;5025557;28;20423;-88
2023/09/20 00:53:06;;;;;;;6.32;1.58;;;;;;;16.00;100.00;100020.09;5022136;28;20415;-87
2023/09/20 00:55:36;;;;;;;4.60;1.42;;;;;;;15.97;100.00;100019.63;5045753;28;20427;-86
2023/09/20 00:58:08;;;;;;;6.17;1.80;;;;;;;15.95;100.00;100026.56;5022470;28;20405;-88
2023/09/20 01:00:40;;;;;;;6.47;1.63;;;;;;;16.14;100.00;100021.47;5029007;28;20812;-88
2023/09/20 01:03:10;;;;;;;3.97;1.45;;;;;;;16.01;100.00;100010.75;5028334;28;20419;-86
2023/09/20 01:05:43;;;;;;;7.93;1.58;;;;;;;15.95;100.00;100015.59;5030258;28;20419;-89
2023/09/20 01:08:13;;;;;;;7.47;1.75;;;;;;;15.89;100.00;100016.94;5025482;28;20427;-88
2023/09/20 01:10:42;;;;;;;6.95;1.80;;;;;;;16.03;100.00;100017.47;5026710;28;20425;-87
2023/09/20 01:13:18;;;;;;;8.20;1.80;;;;;;;16.12;100.00;100022.94;5030356;28;20400;-88
2023/09/20 01:15:46;;;;;;;5.15;1.52;;;;;;;16.07;100.00;100029.41;5029672;28;20788;-88
2023/09/20 01:18:16;;;;;;;6.18;1.50;;;;;;;16.13;100.00;100016.31;5045781;28;20430;-90
2023/09/20 01:20:45;;;;;;;4.82;1.70;;;;;;;16.03;100.00;100017.47;5028686;28;20427;-86
2023/09/20 01:23:14;;;;;;;5.18;1.40;;;;;;;15.95;100.00;100024.66;5029039;28;20435;-88
2023/09/20 01:25:43;;;;;;;6.57;1.50;;;;;;;16.01;100.00;100013.50;5029569;28;20431;-87
2023/09/20 01:28:16;;;;;;;6.20;1.65;;;;;;;16.14;100.00;100015.97;5028764;28;20458;-86
2023/09/20 01:30:50;;;;;;;7.97;2.08;;;;;;;15.94;100.00;100011.25;5022151;28;20423;-88
2023/09/20 01:33:19;;;;;;;5.57;1.70;;;;;;;15.95;100.00;100010.94;5029420;28;20423;-90
2023/09/20 01:35:47;;;;;;;5.28;1.58;;;;;;;16.04;100.00;100010.06;5028992;28;20450;-89
2023/09/20 01:38:21;;;;;;;6.13;1.88;;;;;;;16.00;100.00;100006.38;5029239;28;20415;-87
2023/09/20 01:40:55;;;;;;;6.50;1.73;;;;;;;16.01;100.00;100016.22;5028505;28;20807;-90
2023/09/20 01:43:24;;;;;;;5.75;1.80;;;;;;;16.17;100.00;100019.19;5029669;28;20427;-85
2023/09/20 01:45:58;;;;;;;5.25;1.80;;;;;;;16.00;100.00;100020.91;5029482;28;20423;-88
2023/09/20 01:48:26;;;;;;;6.18;1.60;;;;;;;15.98;100.00;100015.75;5028819;28;20430;-85
2023/09/20 01:51:00;;;;;;;8.80;1.80;;;;;;;16.00;100.00;100031.88;5029007;28;20426;-87
2023/09/20 01:53:29;;;;;;;6.28;1.77;;;;;;;16.12;100.00;100022.94;5034316;28;20422;-88
2023/09/20 01:56:03;;;;;;;6.87;1.77;;;;;;;15.98;100.00;100031.41;5028755;28;20431;-89
2023/09/20 01:58:32;;;;;;;8.13;2.03;;;;;;;15.92;100.00;100025.31;5042647;28;20426;-88
2023/09/20 02:01:05;;;;;;;8.10;1.63;;;;;;;15.95;100.00;100029.31;5018084;28;20427;-87
2023/09/20 02:03:40;;;;;;;6.68;1.60;;;;;;;16.19;100.00;100027.91;5028944;28;20879;-87
2023/09/20 02:06:08;;;;;;;7.45;1.90;;;;;;;16.18;100.00;100029.81;5030538;28;20697;-88
2023/09/20 02:08:42;;;;;;;6.38;1.80;;;;;;;16.11;100.00;100018.56;5025845;28;20433;-87
2023/09/20 02:11:11;;;;;;;8.18;1.92;;;;;;;16.24;100.00;100028.50;5029353;28;20430;-88
2023/09/20 02:13:44;;;;;;;8.45;1.75;;;;;;;16.32;100.00;100026.81;5041451;28;20419;-89
2023/09/20 02:16:12;;;;;;;6.70;1.80;;;;;;;16.29;100.00;100020.03;5029468;28;20473;-86
2023/09/20 02:18:40;;;;;;;5.15;1.80;;;;;;;16.28;100.00;100018.47;5028442;28;20430;-89
2023/09/20 02:21:14;;;;;;;10.18;1.70;;;;;;;16.28;100.00;100023.94;5035922;28;20462;-88
2023/09/20 02:23:43;;;;;;;5.97;1.95;;;;;;;16.19;100.00;100027.91;5029131;28;20921;-91
2023/09/20 02:26:18;;;;;;;6.97;1.88;;;;;;;16.19;100.00;100023.19;5027052;28;20736;-86
2023/09/20 02:28:51;;;;;;;6.22;1.80;;;;;;;16.23;100.00;100021.41;5027952;28;20415;-88
2023/09/20 02:31:19;;;;;;;7.18;1.73;;;;;;;16.30;100.00;100026.34;5045784;28;20771;-85
2023/09/20 02:33:53;;;;;;;6.53;1.83;;;;;;;16.35;100.00;100030.84;5023337;28;20422;-89
2023/09/20 02:36:22;;;;;;;9.88;1.80;;;;;;;16.28;100.00;100034.94;5045777;28;20423;-88
2023/09/20 02:38:52;;;;;;;7.13;1.98;;;;;;;16.25;100.00;100038.31;5028081;28;20457;-86
2023/09/20 02:41:26;;;;;;;6.38;2.00;;;;;;;16.31;100.00;100022.47;5028865;28;20411;-85
2023/09/20 02:43:54;;;;;;;8.90;2.13;;;;;;;16.27;100.00;100035.25;5028729;28;20423;-89
2023/09/20 02:46:22;;;;;;;9.35;1.90;;;;;;;16.27;100.00;100043.50;5030528;28;20423;-89
2023/09/20 02:48:52;;;;;;;8.80;1.90;;;;;;;16.27;100.00;100035.25;5043755;28;20408;-89
2023/09/20 02:51:23;;;;;;;6.20;1.90;;;;;;;16.20;100.00;100033.06;5029370;28;20419;-87
2023/09/20 02:53:53;;;;;;;9.93;2.03;;;;;;;16.23;100.00;100031.59;5034329;28;20426;-88
2023/09/20 02:56:22;;;;;;;8.23;1.98;;;;;;;16.20;100.00;100030.31;5032563;28;20407;-87
2023/09/20 02:58:56;;;;;;;5.35;1.90;;;;;;;16.21;100.00;100033.84;5032231;28;20403;-90
2023/09/20 03:01:24;;;;;;;6.72;1.90;;;;;;;16.20;100.00;100037.72;5047727;28;20415;-90
2023/09/20 03:03:58;;;;;;;8.38;1.95;;;;;;;16.27;100.00;100035.25;5031576;28;20779;-88
2023/09/20 03:06:31;;;;;;;7.85;1.75;;;;;;;16.21;100.00;100033.84;5026916;28;20423;-87
2023/09/20 03:09:01;;;;;;;8.97;2.20;;;;;;;16.17;100.00;100038.38;5032040;28;20419;-88
2023/09/20 03:11:29;;;;;;;7.57;1.80;;;;;;;16.15;100.00;100039.53;5031821;28;20426;-87
2023/09/20 03:13:57;;;;;;;6.88;2.10;;;;;;;16.19;100.00;100038.88;5032276;28;20425;-87
2023/09/20 03:16:30;;;;;;;9.17;2.10;;;;;;;16.17;100.00;100030.94;5032029;28;21068;-90
2023/09/20 03:18:58;;;;;;;8.40;1.80;;;;;;;16.21;100.00;100039.34;5031052;28;20442;-89
2023/09/20 03:21:32;;;;;;;6.47;1.90;;;;;;;16.25;100.00;100035.56;5039323;28;20922;-86
2023/09/20 03:24:05;;;;;;;8.37;1.90;;;;;;;16.25;100.00;100035.56;5040970;28;20775;-88
2023/09/20 03:26:39;;;;;;;8.50;1.88;;;;;;;16.13;100.00;100030.03;5048205;28;20415;-89
2023/09/20 03:29:07;;;;;;;4.40;1.70;;;;;;;16.35;100.00;100033.56;5032107;28;20447;-89
2023/09/20 03:31:42;;;;;;;8.75;1.95;;;;;;;16.24;100.00;100036.72;5042956;28;20415;-86
2023/09/20 03:34:16;;;;;;;7.68;1.73;;;;;;;16.18;100.00;100029.81;5030910;28;20442;-88
2023/09/20 03:36:46;;;;;;;5.13;1.88;;;;;;;16.13;100.00;100033.56;5030692;28;20423;-87
2023/09/20 03:39:24;;;;;;;4.95;1.80;;;;;;;16.25;100.00;100029.28;5031591;28;20948;-88
2023/09/20 03:41:58;;;;;;;6.63;2.00;;;;;;;16.26;100.00;100017.97;5040418;28;20423;-88
2023/09/20 03:44:26;;;;;;;8.25;1.80;;;;;;;16.23;100.00;100023.34;5031569;28;20415;-88
2023/09/20 03:46:54;;;;;;;7.78;2.00;;;;;;;16.18;100.00;100034.53;5039214;28;20425;-89
2023/09/20 03:49:28;;;;;;;7.45;2.00;;;;;;;16.23;100.00;100032.38;5047897;28;20426;-89
2023/09/20 03:51:59;;;;;;;7.20;2.37;;;;;;;16.14;100.00;100018.72;5031789;28;20492;-90
2023/09/20 03:54:34;;;;;;;11.32;2.50;;;;;;;16.20;100.00;100022.06;5031270;28;20430;-88
2023/09/20 03:57:07;;;;;;;4.93;1.67;;;;;;;16.10;100.00;100017.78;5031118;28;20426;-87
2023/09/20 03:59:37;;;;;;;6.93;2.05;;;;;;;16.20;100.00;100030.31;5038417;28;20434;-89
2023/09/20 04:02:05;;;;;;;10.25;2.10;;;;;;;16.15;100.00;100014.81;5029519;28;20442;-88
2023/09/20 04:04:34;;;;;;;5.00;1.70;;;;;;;16.38;100.00;100035.66;5030328;28;20419;-90
2023/09/20 04:07:04;;;;;;;6.88;1.95;;;;;;;16.38;100.00;100019.16;5031263;28;20414;-91
2023/09/20 04:09:35;;;;;;;6.03;1.95;;;;;;;16.27;100.00;100013.31;5038104;28;20799;-87
2023/09/20 04:12:04;;;;;;;5.03;1.70;;;;;;;16.29;100.00;100019.25;5029928;28;20438;-87
2023/09/20 04:14:32;;;;;;;9.07;2.20;;;;;;;16.22;100.00;100016.25;5030634;28;20431;-89
2023/09/20 04:17:00;;;;;;;7.90;2.33;;;;;;;16.28;100.00;100026.69;5030950;28;21016;-87
2023/09/20 04:19:29;;;;;;;8.75;2.13;;;;;;;16.09;100.00;100021.66;5030392;28;20399;-88
2023/09/20 04:22:04;;;;;;;7.63;2.20;;;;;;;16.30;100.00;100031.84;5029820;28;20768;-89
2023/09/20 04:24:38;;;;;;;8.93;2.40;;;;;;;16.22;100.00;100028.00;5046933;28;20414;-87
2023/09/20 04:27:08;;;;;;;8.65;2.10;;;;;;;16.14;100.00;100021.47;5021244;28;20879;-88
2023/09/20 04:29:37;;;;;;;5.00;2.08;;;;;;;16.14;100.00;100026.94;5044649;28;20926;-88
2023/09/20 04:32:05;;;;;;;5.72;2.00;;;;;;;16.14;100.00;100032.44;5046571;28;20427;-89
2023/09/20 04:34:34;;;;;;;7.47;2.03;;;;;;;16.29;100.00;100038.47;5030556;28;20415;-87
2023/09/20 04:37:02;;;;;;;7.70;2.13;;;;;;;16.17;100.00;100025.47;5030312;28;20411;-88
2023/09/20 04:39:30;;;;;;;6.85;1.90;;;;;;;16.11;100.00;100024.06;5030553;28;20442;-86
2023/09/20 04:42:00;;;;;;;7.03;2.15;;;;;;;16.17;100.00;100030.94;5029221;28;20419;-88
2023/09/20 04:44:34;;;;;;;6.63;2.40;;;;;;;16.09;100.00;100021.66;5030060;28;20415;-88
2023/09/20 04:47:02;;;;;;;10.85;2.42;;;;;;;16.17;100.00;100025.47;5029323;28;20412;-88
2023/09/20 04:49:31;;;;;;;8.32;2.10;;;;;;;16.20;100.00;100016.56;5030056;28;20419;-88
2023/09/20 04:52:09;;;;;;;8.33;2.40;;;;;;;16.17;100.00;100022.72;5028484;28;20426;-88
2023/09/20 04:54:43;;;;;;;7.28;2.20;;;;;;;16.11;100.00;100022.09;5031537;28;20940;-88
2023/09/20 04:57:13;;;;;;;7.32;2.13;;;;;;;15.98;100.00;100021.22;5031720;28;20760;-88
2023/09/20 04:59:47;;;;;;;7.17;2.30;;;;;;;15.97;100.00;100019.63;5029622;28;20522;-89
2023/09/20 05:02:15;;;;;;;7.47;2.20;;;;;;;16.01;100.00;100030.75;5028685;28;20776;-88
2023/09/20 05:04:43;;;;;;;7.10;2.08;;;;;;;15.98;100.00;100029.47;5033798;28;20816;-89
2023/09/20 05:07:11;;;;;;;7.15;2.08;;;;;;;16.02;100.00;100037.03;5033467;28;20411;-89
2023/09/20 05:09:49;;;;;;;10.07;2.90;;;;;;;15.98;100.00;100037.69;5026805;28;20419;-86
2023/09/20 05:12:19;;;;;;;8.30;2.10;;;;;;;16.08;100.00;100042.00;5029551;28;20780;-89
2023/09/20 05:14:52;;;;;;;8.73;2.33;;;;;;;16.10;100.00;100037.00;5028070;28;20787;-87
2023/09/20 05:17:21;;;;;;;6.40;2.00;;;;;;;16.06;100.00;100032.47;5029450;28;20419;-88
2023/09/20 05:19:49;;;;;;;8.52;2.35;;;;;;;16.04;100.00;100030.06;5044810;28;20431;-88
2023/09/20 05:22:23;;;;;;;10.15;2.25;;;;;;;16.20;100.00;100026.75;5026239;28;20786;-86
2023/09/20 05:24:51;;;;;;;6.50;2.10;;;;;;;16.08;100.00;100022.00;5028260;28;20911;-89
2023/09/20 05:27:23;;;;;;;6.90;2.03;;;;;;;16.10;100.00;100031.50;5025744;28;20423;-88
2023/09/20 05:29:52;;;;;;;8.50;2.30;;;;;;;16.24;100.00;100033.16;5028987;28;20411;-86
2023/09/20 05:32:22;;;;;;;8.00;2.40;;;;;;;16.11;100.00;100030.34;5029278;28;20427;-88
2023/09/20 05:34:50;;;;;;;6.53;1.98;;;;;;;16.10;100.00;100031.50;5045354;28;20438;-88
2023/09/20 05:37:23;;;;;;;6.90;2.40;;;;;;;15.99;100.00;100035.75;5025761;28;20922;-88
2023/09/20 05:39:56;;;;;;;7.25;2.25;;;;;;;16.05;100.00;100034.44;5029744;28;20423;-90
2023/09/20 05:42:28;;;;;;;9.00;2.30;;;;;;;16.07;100.00;100034.88;5044968;28;20426;-88
2023/09/20 05:45:01;;;;;;;6.72;2.00;;;;;;;16.00;100.00;100042.06;5027023;28;20423;-88
2023/09/20 05:47:30;;;;;;;10.02;2.20;;;;;;;16.26;100.00;100033.66;5029022;28;20435;-87
2023/09/20 05:50:04;;;;;;;6.97;2.20;;;;;;;16.10;100.00;100037.00;5045493;28;20419;-89
2023/09/20 05:52:32;;;;;;;6.45;2.30;;;;;;;16.10;100.00;100041.66;5028709;28;20923;-88
2023/09/20 05:55:00;;;;;;;7.30;2.30;;;;;;;16.08;100.00;100036.50;5029148;28;20422;-87
2023/09/20 05:57:30;;;;;;;10.70;2.20;;;;;;;16.04;100.00;100034.78;5034237;28;20423;-89
2023/09/20 05:59:59;;;;;;;5.53;2.10;;;;;;;16.06;100.00;100033.31;5036366;28;20415;-87
2023/09/20 06:02:29;;;;;;;8.13;2.20;;;;;;;16.00;100.00;100037.38;5029898;28;20763;-88
2023/09/20 06:05:02;;;;;;;9.00;2.27;;;;;;;16.18;100.00;100032.56;5030277;28;20410;-86
2023/09/20 06:07:30;;;;;;;8.88;2.28;;;;;;;16.12;100.00;100039.41;5027802;28;20418;-87
2023/09/20 06:09:58;;;;;;;8.13;2.40;;;;;;;16.02;100.00;100048.00;5026240;28;20447;-88
2023/09/20 06:12:27;;;;;;;6.75;2.38;;;;;;;16.03;100.00;100035.91;5033341;28;20918;-89
2023/09/20 06:15:01;;;;;;;9.23;2.30;;;;;;;16.25;100.00;100037.53;5022797;28;20476;-90
2023/09/20 06:17:32;;;;;;;6.85;2.05;;;;;;;16.11;100.00;100026.81;5033895;28;20425;-87
2023/09/20 06:20:00;;;;;;;13.27;2.40;;;;;;;16.12;100.00;100040.19;5028528;28;20779;-88
2023/09/20 06:22:33;;;;;;;8.18;2.50;;;;;;;16.15;100.00;100041.47;5028902;28;20944;-87
2023/09/20 06:25:05;;;;;;;7.75;2.20;;;;;;;16.24;100.00;100039.47;5045709;28;20415;-88
2023/09/20 06:27:33;;;;;;;6.72;2.30;;;;;;;16.27;100.00;100043.50;5039940;28;20414;-87
2023/09/20 06:30:12;;;;;;;6.45;2.25;;;;;;;16.24;100.00;100044.16;5030430;28;20418;-88
2023/09/20 06:32:41;;;;;;;7.77;2.23;;;;;;;16.27;100.00;100049.00;5032459;28;20430;-87
2023/09/20 06:35:15;;;;;;;8.23;2.15;;;;;;;16.28;100.00;100045.09;5032457;28;20423;-89
2023/09/20 06:37:45;;;;;;;7.28;2.13;;;;;;;16.33;100.00;100056.69;5048599;28;20450;-88
2023/09/20 06:40:22;;;;;;;7.43;2.22;;;;;;;16.33;100.00;100050.38;5031384;28;20484;-88
2023/09/20 06:42:51;;;;;;;7.28;2.13;;;;;;;16.45;100.00;100052.41;5032325;28;20454;-87
2023/09/20 06:45:20;;;;;;;7.15;2.38;;;;;;;16.43;100.00;100055.50;5037720;28;20768;-87
2023/09/20 06:47:49;;;;;;;6.45;2.15;;;;;;;16.40;100.00;100055.34;5028740;28;20418;-89
2023/09/20 06:50:17;;;;;;;9.13;2.45;;;;;;;16.41;100.00;100051.47;5049662;28;20823;-90
2023/09/20 06:52:46;;;;;;;7.65;2.17;;;;;;;16.57;100.00;100060.72;5027354;28;20919;-86
2023/09/20 06:55:20;;;;;;;7.32;2.13;;;;;;;16.59;100.00;100069.41;5032400;28;20411;-88
2023/09/20 06:57:49;;;;;;;6.55;2.08;;;;;;;16.79;100.00;100076.06;5045172;28;20418;-87
2023/09/20 07:00:25;;;;;;;6.57;2.13;;;;;;;16.79;100.00;100062.31;5029103;28;20432;-87
2023/09/20 07:02:58;;;;;;;6.70;2.00;;;;;;;16.89;100.00;100065.78;5029863;28;20419;-87
2023/09/20 07:05:28;;;;;;;10.52;2.38;;;;;;;16.99;100.00;100074.44;5026564;28;20905;-87
2023/09/20 07:07:56;;;;;;;9.63;2.38;;;;;;;16.96;100.00;100075.13;5029752;28;20894;-88
2023/09/20 07:10:25;;;;;;;7.50;2.10;;;;;;;17.13;100.00;100076.88;5031375;28;20969;-86
2023/09/20 07:12:54;;;;;;;9.10;2.40;;;;;;;17.07;100.00;100072.75;5032054;28;20427;-88
2023/09/20 07:15:25;;;;;;;8.40;2.10;;;;;;;17.07;100.00;100078.25;5032617;28;20427;-88
2023/09/20 07:18:00;;;;;;;7.60;2.00;;;;;;;17.19;100.00;100073.94;5031116;28;20427;-87
2023/09/20 07:20:34;;;;;;;7.68;2.20;;;;;;;17.13;100.00;100073.34;5031747;28;20426;-87
2023/09/20 07:23:03;;;;;;;7.82;2.15;;;;;;;17.09;100.00;100081.44;5033103;28;20415;-86
2023/09/20 07:25:35;;;;;;;7.47;2.37;;;;;;;17.09;100.00;100083.41;5034465;28;20906;-88
2023/09/20 07:28:09;;;;;;;9.82;2.70;;;;;;;17.12;100.00;100082.72;5027454;28;20420;-85
2023/09/20 07:30:45;;;;;;;9.85;2.22;;;;;;;17.14;100.00;100091.44;5046388;28;20446;-88
2023/09/20 07:33:23;;;;;;;11.48;2.30;;;;;;;17.01;100.00;100096.06;5028956;28;20433;-88
2023/09/20 07:35:58;;;;;;;5.40;2.10;;;;;;;16.94;100.00;100099.38;5031732;28;20422;-88
2023/09/20 07:38:28;;;;;;;7.72;2.40;;;;;;;16.83;100.00;100093.47;5044627;28;20413;-89
2023/09/20 07:41:05;;;;;;;6.38;2.33;;;;;;;16.92;100.00;100087.13;5031137;28;20891;-87
2023/09/20 07:43:33;;;;;;;7.63;2.15;;;;;;;16.95;100.00;100100.97;5024943;28;20878;-88
2023/09/20 07:46:06;;;;;;;8.82;2.53;;;;;;;17.01;100.00;100096.06;5038088;28;20435;-86
2023/09/20 07:48:37;;;;;;;5.75;2.10;;;;;;;16.98;100.00;100092.06;5031372;28;20434;-87
2023/09/20 07:51:10;;;;;;;8.57;2.20;;;;;;;17.09;100.00;100097.16;5028517;28;21221;-87
2023/09/20 07:53:43;;;;;;;5.60;2.28;;;;;;;17.20;100.00;100092.81;5040916;28;20424;-88
2023/09/20 07:56:17;;;;;;;8.23;2.20;;;;;;;17.16;100.00;100087.19;5048016;28;20933;-87
2023/09/20 07:58:45;;;;;;;7.63;2.20;;;;;;;17.30;100.00;100092.41;5030820;28;20426;-86
2023/09/20 08:01:17;;;;;;;10.55;2.50;;;;;;;17.31;100.00;100098.72;5031419;28;20418;-88
2023/09/20 08:03:58;;;;;;;7.88;2.30;;;;;;;17.33;100.00;100099.16;5045059;28;20428;-86
2023/09/20 08:06:33;;;;;;;8.32;2.40;;;;;;;17.43;100.00;100090.50;5028803;28;20425;-87
2023/09/20 08:09:07;;;;;;;7.80;2.40;;;;;;;17.50;100.00;100101.72;5028487;28;20427;-87
2023/09/20 08:11:40;;;;;;;7.95;2.35;;;;;;;17.44;100.00;100094.03;5036731;28;20428;-89
2023/09/20 08:14:08;;;;;;;8.18;2.40;;;;;;;17.60;100.00;100097.72;5038756;28;21119;-87
2023/09/20 08:16:38;;;;;;;8.67;2.27;;;;;;;17.83;100.00;100097.31;5029710;28;20446;-87
2023/09/20 08:19:20;;;;;;;8.27;2.25;;;;;;;17.74;100.00;100089.16;5029602;28;20433;-85
2023/09/20 08:21:54;;;;;;;7.68;2.65;;;;;;;17.77;100.00;100088.47;5031278;28;20434;-86
2023/09/20 09:00:52;;;;;;;6.25;2.03;;;;;;;19.06;100.00;100109.28;5026385;28;20429;-88
2023/09/20 09:03:26;;;;;;;7.65;1.90;;;;;;;18.89;100.00;100102.91;5027094;28;20528;-89
2023/09/20 09:06:00;;;;;;;5.38;1.90;;;;;;;19.15;100.00;100107.97;5024973;28;20440;-87
2023/09/20 09:08:28;;;;;;;7.40;2.10;;;;;;;19.00;100.00;100100.47;5028224;28;20423;-86
2023/09/20 09:10:57;;;;;;;10.00;2.00;;;;;;;19.04;100.00;100112.41;5045731;28;20427;-90
2023/09/20 09:13:25;;;;;;;10.00;1.92;;;;;;;19.06;100.00;100099.06;5029890;28;20433;-90
2023/09/20 09:15:58;;;;;;;4.38;1.67;;;;;;;19.15;100.00;100098.91;5022885;28;20435;-87
2023/09/20 09:18:32;;;;;;;7.20;1.90;;;;;;;19.10;100.00;100099.16;5028640;28;20439;-87
2023/09/20 09:21:07;;;;;;;7.28;2.05;;;;;;;19.23;100.00;100092.44;5027670;28;20434;-88
2023/09/20 09:23:44;;;;;;;10.38;1.90;;;;;;;19.09;100.00;100106.63;5029610;28;20922;-89
2023/09/20 09:26:18;;;;;;;5.70;1.75;;;;;;;18.82;100.00;100099.94;5028522;28;20415;-88
2023/09/20 09:28:51;;;;;;;6.72;2.05;;;;;;;18.91;100.00;100091.56;5028542;28;20930;-88
2023/09/20 09:31:19;;;;;;;8.32;2.00;;;;;;;19.19;100.00;100097.06;5029404;28;20979;-85
2023/09/20 09:33:48;;;;;;;7.40;1.90;;;;;;;19.19;100.00;100097.06;5045394;28;20430;-89
2023/09/20 09:36:23;;;;;;;6.25;2.08;;;;;;;18.97;100.00;100093.69;5029242;28;20434;-89
2023/09/20 09:38:51;;;;;;;6.90;1.80;;;;;;;18.96;100.00;100103.16;5045508;28;20430;-88
2023/09/20 09:41:20;;;;;;;8.03;2.27;;;;;;;18.91;100.00;100095.13;5029114;28;20415;-87
2023/09/20 09:43:57;;;;;;;7.22;2.10;;;;;;;19.04;100.00;100095.84;5030516;28;21195;-87
2023/09/20 09:46:31;;;;;;;5.18;1.60;;;;;;;19.03;100.00;100092.31;5045466;28;20414;-88
2023/09/20 09:49:01;;;;;;;6.22;1.70;;;;;;;18.90;100.00;100099.00;5029084;28;20439;-89
2023/09/20 09:51:33;;;;;;;7.30;1.67;;;;;;;18.83;100.00;100093.28;5024313;28;20414;-88
2023/09/20 09:54:08;;;;;;;8.02;2.00;;;;;;;18.82;100.00;100102.69;5041149;28;20779;-89
2023/09/20 09:56:41;;;;;;;5.95;1.80;;;;;;;18.85;100.00;100101.97;5027161;28;20430;-89
2023/09/20 09:59:10;;;;;;;6.65;1.95;;;;;;;19.05;100.00;100104.94;5045154;28;20410;-89
2023/09/20 10:01:40;;;;;;;5.40;1.80;;;;;;;19.11;100.00;100096.06;5033442;28;20434;-86
2023/09/20 10:04:11;;;;;;;7.13;1.92;;;;;;;19.12;100.00;100103.16;5037135;28;20423;-87
2023/09/20 10:06:52;;;;;;;5.80;1.83;;;;;;;19.12;100.00;100100.41;5035327;28;20432;-88
2023/09/20 10:09:25;;;;;;;5.82;1.90;;;;;;;19.10;100.00;100097.22;5035240;28;20419;-85
2023/09/20 10:11:53;;;;;;;6.93;1.95;;;;;;;19.11;100.00;100106.28;5035858;28;20631;-87
2023/09/20 10:14:22;;;;;;;8.98;1.92;;;;;;;19.14;100.00;100102.81;5045933;28;20903;-88
2023/09/20 10:16:50;;;;;;;7.05;2.15;;;;;;;19.09;100.00;100098.38;5034653;28;20427;-87
2023/09/20 10:19:19;;;;;;;7.57;2.30;;;;;;;19.05;100.00;100094.72;5032595;28;20445;-88
2023/09/20 10:22:08;;;;;;;7.03;2.20;;;;;;;19.19;100.00;100097.84;5034799;28;20922;-88
2023/09/20 10:24:53;;;;;;;8.13;2.10;;;;;;;19.19;100.00;100086.03;5035562;28;20426;-87
2023/09/20 10:27:22;;;;;;;9.15;2.38;;;;;;;19.22;100.00;100095.56;5035341;28;20429;-88
2023/09/20 10:30:05;;;;;;;6.00;2.00;;;;;;;19.19;100.00;100088.78;5035039;28;20430;-88
2023/09/20 10:32:35;;;;;;;7.90;2.60;;;;;;;19.24;100.00;100099.56;5034097;28;20442;-90
2023/09/20 10:35:27;;;;;;;7.35;2.22;;;;;;;19.25;100.00;100095.66;5034396;28;20429;-87
2023/09/20 10:38:20;;;;;;;8.10;2.22;;;;;;;19.19;100.00;100108.88;5036978;28;20406;-89
2023/09/20 10:41:00;;;;;;;8.65;2.50;;;;;;;19.17;100.00;100107.66;5032934;28;20415;-89
2023/09/20 10:43:49;;;;;;;10.23;2.70;;;;;;;19.24;100.00;100104.25;5033422;28;20422;-89
2023/09/20 10:46:19;;;;;;;7.25;2.50;;;;;;;19.29;100.00;100101.25;5035918;28;20427;-89
2023/09/20 10:48:52;;;;;;;8.27;2.67;;;;;;;19.47;100.00;100105.31;5035216;28;20427;-90
2023/09/20 10:51:42;;;;;;;8.60;3.10;;;;;;;19.43;100.00;100100.81;5035039;28;20792;-87
2023/09/20 10:54:25;;;;;;;8.38;2.40;;;;;;;19.48;100.00;100100.56;5034860;28;20418;-86
2023/09/20 10:57:05;;;;;;;11.87;2.60;;;;;;;19.72;100.00;100107.91;5035185;28;20438;-88
2023/09/20 10:59:40;;;;;;;8.07;2.38;;;;;;;19.72;100.00;100110.66;5045216;28;20433;-87
2023/09/20 11:02:12;;;;;;;7.75;2.45;;;;;;;19.83;100.00;100102.66;5032298;28;20426;-88
2023/09/20 11:04:41;;;;;;;11.25;3.00;;;;;;;19.98;100.00;100098.28;5047430;28;20420;-92
2023/09/20 11:07:15;;;;;;;10.98;2.80;;;;;;;20.20;100.00;100100.41;5025333;28;20448;-88
2023/09/20 11:09:47;;;;;;;9.60;2.63;;;;;;;20.17;100.00;100098.34;5050321;28;20887;-90
2023/09/20 11:12:16;;;;;;;9.98;2.88;;;;;;;20.25;100.00;100098.53;5033836;28;20506;-88
2023/09/20 11:14:47;;;;;;;10.63;2.88;;;;;;;20.20;100.00;100096.81;5031085;28;20418;-89
2023/09/20 11:17:21;;;;;;;6.10;2.47;;;;;;;20.11;100.00;100097.03;5043384;28;20439;-91
2023/09/20 11:19:49;;;;;;;6.18;2.50;;;;;;;20.20;100.00;100094.88;5032104;28;20433;-89
2023/09/20 11:22:19;;;;;;;10.85;2.83;;;;;;;20.06;100.00;100094.53;5042687;28;20430;-88
2023/09/20 11:24:51;;;;;;;7.35;2.45;;;;;;;20.16;100.00;100096.75;5029359;28;20889;-87
2023/09/20 11:27:20;;;;;;;9.30;2.70;;;;;;;20.13;100.00;100091.13;5028321;28;20428;-90
2023/09/20 11:29:49;;;;;;;11.32;2.75;;;;;;;20.29;100.00;100093.88;5031507;28;20430;-87
2023/09/20 11:32:21;;;;;;;10.38;2.97;;;;;;;20.15;100.00;100081.34;5048032;28;20906;-87
2023/09/20 11:34:51;;;;;;;9.48;2.90;;;;;;;20.27;100.00;100087.91;5047757;28;21020;-89
2023/09/20 11:37:21;;;;;;;8.17;2.70;;;;;;;20.32;100.00;100096.72;5022796;28;20496;-89
2023/09/20 11:39:53;;;;;;;9.15;2.90;;;;;;;20.39;100.00;100091.34;5033121;28;20411;-87
2023/09/20 11:42:28;;;;;;;9.80;2.80;;;;;;;20.36;100.00;100092.06;5031332;28;20475;-90
2023/09/20 11:44:58;;;;;;;7.68;2.67;;;;;;;20.43;100.00;100077.59;5051670;28;20942;-89
2023/09/20 11:47:30;;;;;;;7.50;2.80;;;;;;;20.54;100.00;100094.44;5027507;28;20787;-89
2023/09/20 11:49:58;;;;;;;8.38;2.65;;;;;;;20.53;100.00;100093.59;5032468;28;20422;-88
2023/09/20 11:52:27;;;;;;;14.98;2.90;;;;;;;20.50;100.00;100082.50;5030783;28;20426;-90
2023/09/20 11:54:59;;;;;;;9.93;2.83;;;;;;;20.54;100.00;100075.88;5047925;28;20856;-89
2023/09/20 11:57:27;;;;;;;10.95;2.83;;;;;;;20.59;100.00;100072.03;5026883;28;20518;-88
2023/09/20 11:59:55;;;;;;;9.07;2.85;;;;;;;20.54;100.00;100069.53;5029074;28;20423;-87
2023/09/20 12:02:23;;;;;;;10.07;2.75;;;;;;;20.72;100.00;100072.72;5030892;28;20438;-88
2023/09/20 12:04:52;;;;;;;10.13;2.90;;;;;;;20.77;100.00;100077.13;5043618;28;21103;-89
2023/09/20 12:07:20;;;;;;;7.78;2.70;;;;;;;20.82;100.00;100080.41;5037021;28;20426;-88
2023/09/20 12:09:49;;;;;;;8.70;2.80;;;;;;;20.57;100.00;100079.88;5040327;28;20505;-87
2023/09/20 12:12:18;;;;;;;9.60;2.80;;;;;;;20.35;100.00;100081.38;5047082;28;20435;-90
2023/09/20 12:14:46;;;;;;;10.03;3.10;;;;;;;20.29;100.00;100080.84;5030651;28;20474;-89